createdAt,value
2022-08-11T00:00:01.322Z,20.95
2022-08-11T00:02:34.586Z,20.92
2022-08-11T00:05:08.192Z,20.93
2022-08-11T00:07:42.396Z,20.94
2022-08-11T00:10:13.236Z,20.94
2022-08-11T00:12:44.126Z,20.89
2022-08-11T00:15:14.447Z,20.91
2022-08-11T00:17:43.751Z,20.87
2022-08-11T00:20:16.958Z,20.80
2022-08-11T00:22:48.230Z,20.76
2022-08-11T00:25:19.329Z,20.77
2022-08-11T00:27:49.944Z,20.74
2022-08-11T00:30:19.490Z,20.64
2022-08-11T00:32:56.249Z,20.62
2022-08-11T00:35:55.429Z,20.54
2022-08-11T00:38:25.874Z,20.51
2022-08-11T00:41:00.631Z,20.51
2022-08-11T00:43:48.571Z,20.46
2022-08-11T00:46:30.220Z,20.49
2022-08-11T00:49:12.050Z,20.48
2022-08-11T00:52:02.253Z,20.43
2022-08-11T00:55:24.207Z,20.36
2022-08-11T00:58:23.838Z,20.34
2022-08-11T01:01:11.498Z,20.34
2022-08-11T01:04:16.117Z,20.22
2022-08-11T01:08:01.075Z,20.18
2022-08-11T01:10:47.135Z,20.17
2022-08-11T01:13:33.378Z,20.10
2022-08-11T01:16:31.262Z,20.14
2022-08-11T01:19:34.451Z,20.04
2022-08-11T01:23:04.194Z,20.01
2022-08-11T01:26:04.969Z,19.93
2022-08-11T01:29:11.964Z,19.91
2022-08-11T01:32:08.239Z,19.91
2022-08-11T01:35:18.602Z,19.87
2022-08-11T01:38:28.465Z,19.75
2022-08-11T01:41:47.568Z,19.75
2022-08-11T01:44:39.704Z,19.69
2022-08-11T01:47:37.181Z,19.65
2022-08-11T01:50:15.684Z,19.73
2022-08-11T01:53:01.209Z,19.69
2022-08-11T01:55:38.975Z,19.65
2022-08-11T01:58:17.096Z,19.55
2022-08-11T02:00:56.375Z,19.49
2022-08-11T02:03:29.955Z,19.52
2022-08-11T02:06:25.930Z,19.48
2022-08-11T02:09:03.266Z,19.42
2022-08-11T02:11:37.501Z,19.38
2022-08-11T02:14:22.704Z,19.34
2022-08-11T02:17:03.755Z,19.35
2022-08-11T02:20:01.240Z,19.36
2022-08-11T02:22:53.200Z,19.36
2022-08-11T02:25:28.534Z,19.34
2022-08-11T02:28:04.342Z,19.28
2022-08-11T02:30:36.560Z,19.28
2022-08-11T02:33:25.122Z,19.37
2022-08-11T02:36:02.729Z,19.27
2022-08-11T02:38:36.943Z,19.20
2022-08-11T02:41:31.654Z,19.16
2022-08-11T02:44:17.980Z,19.15
2022-08-11T02:46:58.128Z,19.12
2022-08-11T02:50:06.341Z,19.15
2022-08-11T02:52:42.428Z,19.13
2022-08-11T02:55:56.146Z,19.15
2022-08-11T02:58:27.110Z,19.17
2022-08-11T03:01:11.479Z,19.16
2022-08-11T03:03:48.582Z,19.13
2022-08-11T03:06:30.976Z,19.11
2022-08-11T03:09:07.613Z,19.07
2022-08-11T03:12:25.513Z,19.02
2022-08-11T03:15:18.793Z,18.96
2022-08-11T03:18:03.992Z,18.94
2022-08-11T03:20:40.426Z,18.93
2022-08-11T03:23:23.723Z,18.94
2022-08-11T03:26:02.624Z,18.86
2022-08-11T03:28:36.076Z,18.84
2022-08-11T03:31:17.270Z,18.87
2022-08-11T03:34:08.075Z,18.78
2022-08-11T03:37:16.839Z,18.75
2022-08-11T03:40:01.137Z,18.75
2022-08-11T03:42:36.208Z,18.73
2022-08-11T03:45:18.442Z,18.72
2022-08-11T03:48:00.164Z,18.66
2022-08-11T03:51:03.966Z,18.56
2022-08-11T03:53:56.030Z,18.57
2022-08-11T03:56:58.079Z,18.56
2022-08-11T03:59:47.272Z,18.48
2022-08-11T04:02:36.861Z,18.51
2022-08-11T04:05:42.637Z,18.51
2022-08-11T04:08:34.280Z,18.53
2022-08-11T04:11:38.481Z,18.45
2022-08-11T04:14:46.563Z,18.39
2022-08-11T04:17:47.362Z,18.37
2022-08-11T04:20:53.572Z,18.42
2022-08-11T04:24:36.171Z,18.41
2022-08-11T04:27:13.251Z,18.41
2022-08-11T04:30:03.619Z,18.37
2022-08-11T04:33:06.154Z,18.35
2022-08-11T04:35:50.993Z,18.35
2022-08-11T04:38:59.570Z,18.32
2022-08-11T04:42:09.963Z,18.26
2022-08-11T04:45:13.269Z,18.25
2022-08-11T04:48:20.191Z,18.25
2022-08-11T04:51:45.796Z,18.30
2022-08-11T04:54:48.051Z,18.32
2022-08-11T04:57:41.440Z,18.32
2022-08-11T05:00:28.421Z,18.31
2022-08-11T05:03:31.044Z,18.32
2022-08-11T05:06:44.253Z,18.35
2022-08-11T05:09:47.427Z,18.36
2022-08-11T05:12:29.939Z,18.30
2022-08-11T05:15:17.579Z,18.32
2022-08-11T05:18:10.759Z,18.30
2022-08-11T05:21:05.420Z,18.36
2022-08-11T05:23:53.124Z,18.39
2022-08-11T05:26:46.017Z,18.41
2022-08-11T05:30:00.139Z,18.45
2022-08-11T05:32:53.632Z,18.48
2022-08-11T05:36:02.316Z,18.48
2022-08-11T05:38:42.557Z,18.51
2022-08-11T05:41:30.882Z,18.58
2022-08-11T05:44:22.233Z,18.59
2022-08-11T05:47:09.004Z,18.70
2022-08-11T05:49:56.678Z,18.77
2022-08-11T05:52:46.849Z,18.84
2022-08-11T05:55:34.053Z,18.92
2022-08-11T05:58:04.850Z,19.00
2022-08-11T06:00:43.135Z,19.08
2022-08-11T06:03:12.271Z,19.17
2022-08-11T06:05:43.600Z,19.25
2022-08-11T06:08:13.498Z,19.34
2022-08-11T06:10:44.245Z,19.45
2022-08-11T06:13:17.026Z,19.55
2022-08-11T06:15:50.284Z,19.65
2022-08-11T06:18:19.439Z,19.74
2022-08-11T06:20:48.994Z,19.88
2022-08-11T06:23:19.489Z,19.98
2022-08-11T06:25:49.117Z,20.07
2022-08-11T06:28:21.095Z,20.12
2022-08-11T06:30:51.621Z,20.26
2022-08-11T06:33:30.844Z,20.35
2022-08-11T06:36:11.896Z,20.43
2022-08-11T06:43:55.972Z,20.72
2022-08-11T06:46:32.293Z,20.85
2022-08-11T06:49:03.253Z,21.00
2022-08-11T06:51:32.390Z,21.16
2022-08-11T06:54:05.377Z,21.22
2022-08-11T06:57:26.327Z,21.38
2022-08-11T07:00:01.925Z,21.57
2022-08-11T07:02:35.026Z,21.71
2022-08-11T07:05:09.596Z,21.85
2022-08-11T07:08:42.430Z,22.03
2022-08-11T07:12:10.636Z,22.22
2022-08-11T07:15:01.033Z,22.42
2022-08-11T07:17:33.034Z,22.60
2022-08-11T07:20:22.020Z,22.66
2022-08-11T07:23:13.217Z,22.84
2022-08-11T07:26:01.248Z,23.06
2022-08-11T07:28:50.134Z,23.26
2022-08-11T07:31:32.716Z,23.46
2022-08-11T07:34:18.160Z,23.66
2022-08-11T07:36:51.041Z,23.85
2022-08-11T07:39:23.306Z,23.95
2022-08-11T07:41:55.154Z,24.14
2022-08-11T07:44:29.492Z,24.31
2022-08-11T07:47:18.925Z,24.48
2022-08-11T07:50:08.685Z,24.72
2022-08-11T07:52:39.951Z,24.85
2022-08-11T07:55:13.060Z,25.04
2022-08-11T07:58:15.586Z,25.18
2022-08-11T08:01:10.704Z,25.30
2022-08-11T08:04:08.382Z,25.47
2022-08-11T08:06:57.964Z,25.67
2022-08-11T08:09:44.405Z,25.83
2022-08-11T08:12:31.604Z,26.04
2022-08-11T08:15:17.765Z,26.25
2022-08-11T08:18:20.852Z,26.46
2022-08-11T08:20:49.672Z,26.73
2022-08-11T08:23:33.894Z,26.98
2022-08-11T08:26:05.819Z,27.21
2022-08-11T08:28:46.693Z,27.35
2022-08-11T08:31:15.358Z,27.35
2022-08-11T08:33:44.567Z,27.53
2022-08-11T08:36:15.384Z,27.65
2022-08-11T08:38:49.613Z,27.89
2022-08-11T08:41:23.481Z,27.87
2022-08-11T08:43:59.854Z,27.93
2022-08-11T08:46:47.543Z,28.19
2022-08-11T08:49:19.378Z,28.42
2022-08-11T08:52:01.751Z,28.57
2022-08-11T08:54:46.013Z,28.66
2022-08-11T08:57:14.875Z,28.94
2022-08-11T08:59:49.016Z,29.10
2022-08-11T09:02:34.602Z,29.22
2022-08-11T09:05:04.867Z,29.37
2022-08-11T09:07:39.633Z,29.54
2022-08-11T09:10:11.965Z,29.67
2022-08-11T09:12:42.872Z,29.99
2022-08-11T09:15:14.920Z,30.22
2022-08-11T09:17:49.500Z,30.47
2022-08-11T09:20:21.769Z,30.58
2022-08-11T09:26:19.042Z,30.83
2022-08-11T09:28:49.708Z,31.17
2022-08-11T09:31:18.036Z,31.34
2022-08-11T09:33:53.375Z,31.33
2022-08-11T09:36:39.891Z,31.48
2022-08-11T09:39:26.153Z,31.61
2022-08-11T09:42:01.424Z,31.60
2022-08-11T09:44:48.942Z,31.64
2022-08-11T09:47:24.396Z,31.62
2022-08-11T09:49:56.303Z,31.96
2022-08-11T09:52:25.859Z,32.18
2022-08-11T09:54:55.699Z,32.10
2022-08-11T09:57:44.923Z,32.14
2022-08-11T10:00:15.264Z,32.37
2022-08-11T10:02:45.780Z,32.53
2022-08-11T10:05:35.827Z,32.60
2022-08-11T10:08:04.936Z,32.99
2022-08-11T10:10:37.183Z,33.20
2022-08-11T10:14:31.870Z,33.27
2022-08-11T10:16:15.763Z,33.13
2022-08-11T10:18:53.384Z,33.07
2022-08-11T10:21:34.874Z,33.20
2022-08-11T10:24:21.280Z,33.09
2022-08-11T10:26:54.750Z,33.48
2022-08-11T10:29:49.560Z,33.66
2022-08-11T10:32:57.329Z,33.72
2022-08-11T10:35:28.350Z,33.47
2022-08-11T10:38:08.655Z,33.68
2022-08-11T10:40:40.454Z,33.77
2022-08-11T10:43:13.785Z,33.75
2022-08-11T10:46:04.509Z,33.93
2022-08-11T10:48:38.973Z,34.22
2022-08-11T10:51:13.851Z,34.31
2022-08-11T10:54:02.915Z,34.63
2022-08-11T10:56:51.944Z,34.85
2022-08-11T10:59:20.254Z,35.06
2022-08-11T11:01:50.265Z,34.83
2022-08-11T11:04:20.050Z,34.90
2022-08-11T11:07:00.541Z,34.87
2022-08-11T11:09:32.358Z,35.09
2022-08-11T11:12:22.099Z,34.80
2022-08-11T11:15:17.864Z,34.85
2022-08-11T11:18:01.625Z,35.24
2022-08-11T11:20:37.610Z,35.62
2022-08-11T11:23:11.319Z,35.64
2022-08-11T11:26:10.874Z,35.68
2022-08-11T11:29:09.271Z,35.77
2022-08-11T11:31:51.773Z,36.09
2022-08-11T11:34:27.989Z,35.97
2022-08-11T11:36:58.194Z,35.54
2022-08-11T11:39:28.771Z,35.46
2022-08-11T11:41:58.695Z,35.79
2022-08-11T11:44:27.777Z,36.12
2022-08-11T11:46:56.901Z,36.48
2022-08-11T11:49:32.270Z,35.96
2022-08-11T11:52:01.751Z,36.24
2022-08-11T11:54:32.474Z,35.97
2022-08-11T11:57:23.447Z,35.85
2022-08-11T12:00:10.797Z,36.27
2022-08-11T12:02:41.908Z,36.49
2022-08-11T12:05:12.992Z,36.54
2022-08-11T12:08:13.216Z,36.93
2022-08-11T12:10:44.645Z,36.84
2022-08-11T12:13:31.301Z,37.11
2022-08-11T12:16:34.852Z,37.23
2022-08-11T12:18:54.145Z,37.42
2022-08-11T12:21:25.604Z,37.87
2022-08-11T12:24:13.626Z,37.69
2022-08-11T12:27:16.504Z,37.75
2022-08-11T12:29:52.830Z,37.86
2022-08-11T12:32:24.606Z,37.97
2022-08-11T12:34:52.897Z,38.11
2022-08-11T12:37:30.220Z,38.32
2022-08-11T12:40:50.086Z,38.13
2022-08-11T12:43:37.964Z,38.10
2022-08-11T12:46:11.176Z,38.25
2022-08-11T12:49:03.086Z,38.38
2022-08-11T12:52:11.036Z,38.29
2022-08-11T12:54:52.708Z,38.20
2022-08-11T12:57:47.271Z,38.07
2022-08-11T13:00:34.423Z,38.17
2022-08-11T13:03:24.039Z,38.27
2022-08-11T13:05:55.467Z,38.43
2022-08-11T13:08:26.192Z,38.29
2022-08-11T13:11:15.716Z,38.53
2022-08-11T13:13:53.587Z,38.71
2022-08-11T13:16:27.674Z,38.33
2022-08-11T13:18:57.394Z,38.65
2022-08-11T13:21:26.063Z,38.49
2022-08-11T13:24:01.233Z,38.60
2022-08-11T13:26:48.281Z,38.65
2022-08-11T13:29:20.551Z,38.97
2022-08-11T13:31:49.733Z,39.38
2022-08-11T13:34:19.737Z,39.35
2022-08-11T13:36:52.397Z,39.32
2022-08-11T13:39:23.865Z,39.12
2022-08-11T13:41:56.804Z,39.09
2022-08-11T13:44:28.261Z,39.32
2022-08-11T13:47:01.388Z,39.34
2022-08-11T13:49:32.011Z,39.19
2022-08-11T13:52:02.205Z,39.50
2022-08-11T13:54:34.872Z,39.35
2022-08-11T13:57:09.036Z,39.35
2022-08-11T13:59:51.869Z,39.25
2022-08-11T14:02:30.850Z,39.35
2022-08-11T14:05:04.255Z,38.78
2022-08-11T14:07:39.270Z,38.80
2022-08-11T14:10:10.318Z,38.86
2022-08-11T14:13:01.842Z,39.12
2022-08-11T14:15:34.094Z,38.85
2022-08-11T14:18:06.614Z,38.79
2022-08-11T14:20:56.001Z,38.75
2022-08-11T14:23:29.207Z,38.84
2022-08-11T14:26:15.701Z,39.34
2022-08-11T14:28:45.614Z,39.05
2022-08-11T14:31:15.676Z,39.24
2022-08-11T14:33:58.460Z,39.09
2022-08-11T14:36:34.043Z,38.95
2022-08-11T14:39:05.481Z,39.08
2022-08-11T14:42:09.916Z,38.93
2022-08-11T14:45:02.886Z,38.99
2022-08-11T14:47:34.837Z,39.03
2022-08-11T14:50:10.733Z,38.68
2022-08-11T14:52:45.817Z,38.69
2022-08-11T14:55:32.396Z,38.81
2022-08-11T14:58:01.817Z,38.54
2022-08-11T15:00:32.477Z,38.48
2022-08-11T15:03:12.890Z,38.45
2022-08-11T15:05:57.020Z,38.27
2022-08-11T15:08:49.114Z,38.08
2022-08-11T15:11:36.461Z,38.05
2022-08-11T15:14:07.047Z,37.65
2022-08-11T15:16:56.083Z,37.30
2022-08-11T15:19:40.447Z,37.60
2022-08-11T15:22:28.477Z,37.46
2022-08-11T15:24:58.577Z,37.21
2022-08-11T15:27:44.515Z,37.17
2022-08-11T15:30:32.887Z,37.01
2022-08-11T15:33:24.505Z,37.07
2022-08-11T15:36:11.222Z,36.72
2022-08-11T15:38:45.650Z,36.71
2022-08-11T15:41:35.775Z,36.38
2022-08-11T15:44:51.366Z,36.35
2022-08-11T15:47:19.329Z,36.42
2022-08-11T15:50:10.600Z,35.92
2022-08-11T15:52:48.307Z,35.84
2022-08-11T15:55:18.662Z,35.57
2022-08-11T15:58:07.618Z,35.37
2022-08-11T16:00:57.994Z,35.13
2022-08-11T16:04:07.875Z,34.84
2022-08-11T16:06:46.302Z,34.96
2022-08-11T16:09:21.486Z,34.91
2022-08-11T16:11:49.923Z,34.68
2022-08-11T16:14:37.423Z,34.74
2022-08-11T16:17:08.195Z,34.53
2022-08-11T16:19:38.262Z,34.19
2022-08-11T16:22:12.803Z,34.23
2022-08-11T16:27:04.505Z,34.34
2022-08-11T16:27:37.526Z,34.11
2022-08-11T16:30:07.192Z,34.12
2022-08-11T16:32:38.068Z,34.02
2022-08-11T16:35:26.788Z,33.91
2022-08-11T16:38:15.938Z,33.92
2022-08-11T16:40:45.470Z,33.95
2022-08-11T16:43:35.550Z,33.92
2022-08-11T16:46:33.826Z,33.79
2022-08-11T16:49:04.414Z,33.56
2022-08-11T16:51:33.435Z,33.63
2022-08-11T16:54:05.466Z,33.47
2022-08-11T16:56:39.980Z,33.35
2022-08-11T16:59:17.593Z,33.41
2022-08-11T17:01:53.316Z,33.10
2022-08-11T17:04:52.630Z,33.17
2022-08-11T17:07:43.120Z,33.13
2022-08-11T17:10:50.877Z,33.22
2022-08-11T17:13:24.879Z,33.10
2022-08-11T17:16:12.094Z,33.19
2022-08-11T17:18:57.211Z,33.11
2022-08-11T17:21:30.226Z,33.05
2022-08-11T17:24:06.387Z,33.02
2022-08-11T17:26:58.284Z,32.96
2022-08-11T17:29:30.142Z,32.86
2022-08-11T17:32:16.015Z,32.85
2022-08-11T17:35:04.234Z,32.77
2022-08-11T17:37:34.487Z,32.67
2022-08-11T17:40:06.171Z,32.60
2022-08-11T17:42:55.757Z,32.73
2022-08-11T17:45:44.963Z,32.60
2022-08-11T17:48:28.586Z,32.47
2022-08-11T17:50:59.249Z,32.35
2022-08-11T17:54:16.990Z,32.12
2022-08-11T17:56:53.336Z,31.96
2022-08-11T17:59:43.831Z,31.86
2022-08-11T18:02:37.314Z,31.79
2022-08-11T18:05:12.284Z,31.92
2022-08-11T18:08:00.393Z,31.67
2022-08-11T18:10:48.133Z,31.59
2022-08-11T18:13:36.070Z,31.36
2022-08-11T18:16:23.412Z,31.15
2022-08-11T18:19:09.031Z,31.07
2022-08-11T18:22:14.358Z,30.99
2022-08-11T18:25:07.297Z,30.93
2022-08-11T18:28:00.722Z,30.75
2022-08-11T18:30:48.076Z,30.75
2022-08-11T18:34:06.012Z,30.69
2022-08-11T18:36:49.611Z,30.39
2022-08-11T18:39:38.896Z,30.40
2022-08-11T18:42:31.031Z,30.11
2022-08-11T18:45:18.668Z,30.03
2022-08-11T18:48:07.329Z,29.79
2022-08-11T18:51:29.573Z,29.83
2022-08-11T18:54:09.396Z,29.51
2022-08-11T18:56:55.089Z,29.53
2022-08-11T18:59:46.221Z,29.42
2022-08-11T19:02:49.106Z,29.39
2022-08-11T19:06:06.051Z,29.07
2022-08-11T19:08:48.225Z,28.97
2022-08-11T19:11:33.909Z,28.88
2022-08-11T19:14:21.716Z,28.75
2022-08-11T19:17:09.805Z,28.65
2022-08-11T19:19:58.003Z,28.67
2022-08-11T19:22:46.163Z,28.52
2022-08-11T19:25:35.026Z,28.31
2022-08-11T19:28:25.052Z,28.31
2022-08-11T19:31:12.464Z,28.14
2022-08-11T19:34:02.698Z,28.04
2022-08-11T19:36:57.064Z,27.93
2022-08-11T19:39:45.465Z,27.71
2022-08-11T19:42:33.486Z,27.48
2022-08-11T19:45:21.082Z,27.36
2022-08-11T19:48:30.743Z,27.29
2022-08-11T19:51:14.967Z,27.34
2022-08-11T19:54:01.637Z,27.19
2022-08-11T19:56:47.954Z,27.16
2022-08-11T19:59:39.192Z,26.95
2022-08-11T20:02:25.439Z,26.90
2022-08-11T20:05:11.202Z,26.80
2022-08-11T20:07:57.199Z,26.63
2022-08-11T20:10:44.501Z,26.48
2022-08-11T20:13:31.731Z,26.53
2022-08-11T20:16:20.646Z,26.42
2022-08-11T20:19:08.447Z,26.35
2022-08-11T20:21:54.635Z,26.29
2022-08-11T20:24:40.937Z,26.02
2022-08-11T20:27:28.559Z,26.09
2022-08-11T20:30:17.442Z,25.97
2022-08-11T20:33:05.791Z,25.96
2022-08-11T20:35:54.533Z,25.91
2022-08-11T20:38:41.731Z,25.89
2022-08-11T20:41:30.116Z,25.67
2022-08-11T20:44:17.334Z,25.60
2022-08-11T20:47:05.629Z,25.34
2022-08-11T20:50:02.974Z,25.33
2022-08-11T20:52:50.967Z,25.31
2022-08-11T20:55:51.274Z,25.21
2022-08-11T21:01:46.361Z,25.10
2022-08-11T21:04:32.770Z,25.01
2022-08-11T21:07:23.557Z,24.98
2022-08-11T21:10:23.699Z,24.97
2022-08-11T21:13:25.035Z,24.91
2022-08-11T21:16:25.149Z,24.89
2022-08-11T21:19:19.215Z,24.86
2022-08-11T21:22:28.099Z,24.70
2022-08-11T21:25:16.298Z,24.72
2022-08-11T21:28:04.517Z,24.62
2022-08-11T21:30:53.997Z,24.58
2022-08-11T21:33:45.148Z,24.53
2022-08-11T21:36:30.938Z,24.36
2022-08-11T21:39:19.811Z,24.27
2022-08-11T21:42:12.197Z,24.25
2022-08-11T21:45:01.697Z,24.26
2022-08-11T21:47:48.519Z,24.16
2022-08-11T21:50:34.644Z,24.08
2022-08-11T21:53:21.364Z,24.09
2022-08-11T21:56:11.272Z,24.00
2022-08-11T21:58:58.223Z,23.98
2022-08-11T22:01:52.736Z,23.85
2022-08-11T22:04:39.780Z,23.84
2022-08-11T22:07:26.814Z,23.79
2022-08-11T22:10:40.192Z,23.72
2022-08-11T22:13:20.691Z,23.65
2022-08-11T22:16:06.737Z,23.66
2022-08-11T22:18:54.025Z,23.58
2022-08-11T22:22:01.244Z,23.52
2022-08-11T22:24:47.523Z,23.45
2022-08-11T22:27:33.735Z,23.39
2022-08-11T22:30:20.889Z,23.39
2022-08-11T22:33:06.750Z,23.38
2022-08-11T22:35:54.341Z,23.32
2022-08-11T22:38:40.739Z,23.27
2022-08-11T22:41:26.511Z,23.25
2022-08-11T22:44:12.148Z,23.20
2022-08-11T22:47:01.010Z,23.10
2022-08-11T22:49:58.116Z,23.11
2022-08-11T22:52:45.459Z,23.08
2022-08-11T22:55:31.798Z,23.00
2022-08-11T22:58:18.309Z,22.92
2022-08-11T23:01:04.523Z,22.95
2022-08-11T23:03:53.025Z,22.88
2022-08-11T23:06:39.725Z,22.86
2022-08-11T23:09:27.017Z,22.79
2022-08-11T23:12:12.859Z,22.74
2022-08-11T23:15:00.932Z,22.73
2022-08-11T23:17:49.576Z,22.71
2022-08-11T23:20:43.170Z,22.63
2022-08-11T23:23:33.438Z,22.60
2022-08-11T23:26:20.272Z,22.59
2022-08-11T23:29:06.535Z,22.56
2022-08-11T23:31:54.825Z,22.54
2022-08-11T23:35:03.889Z,22.51
2022-08-11T23:37:51.980Z,22.43
2022-08-11T23:40:37.390Z,22.40
2022-08-11T23:43:23.739Z,22.33
2022-08-11T23:46:09.217Z,22.33
2022-08-11T23:48:56.012Z,22.35
2022-08-11T23:51:41.910Z,22.32
2022-08-11T23:54:32.623Z,22.29
2022-08-11T23:57:20.464Z,22.23
